createdAt,value
2018-09-13T00:05:52.197Z,77.50
2018-09-13T00:11:56.868Z,77.85
2018-09-13T00:18:01.618Z,76.68
2018-09-13T00:24:06.405Z,76.75
2018-09-13T00:30:12.082Z,76.41
2018-09-13T00:36:16.984Z,75.79
2018-09-13T00:42:22.105Z,76.14
2018-09-13T00:48:27.007Z,75.98
2018-09-13T00:54:31.882Z,76.37
2018-09-13T01:00:36.635Z,75.98
2018-09-13T01:06:43.101Z,76.43
2018-09-13T01:12:47.864Z,76.65
2018-09-13T01:18:53.035Z,76.12
2018-09-13T01:24:58.278Z,76.54
2018-09-13T01:31:03.246Z,76.16
2018-09-13T01:37:08.016Z,76.70
2018-09-13T01:43:13.218Z,75.26
2018-09-13T01:49:18.021Z,75.86
2018-09-13T01:55:22.978Z,75.22
2018-09-13T02:01:30.518Z,75.35
2018-09-13T02:07:35.379Z,74.99
2018-09-13T02:13:40.065Z,76.43
2018-09-13T02:19:45.000Z,75.45
2018-09-13T02:25:49.770Z,76.15
2018-09-13T02:31:54.585Z,76.37
2018-09-13T02:37:59.336Z,76.64
2018-09-13T02:44:04.689Z,75.54
2018-09-13T02:50:09.924Z,76.21
2018-09-13T02:56:15.059Z,75.21
2018-09-13T03:02:19.968Z,75.52
2018-09-13T03:08:24.814Z,75.15
2018-09-13T03:14:29.707Z,75.90
2018-09-13T03:20:34.728Z,76.29
2018-09-13T03:26:39.791Z,74.93
2018-09-13T03:32:45.636Z,75.54
2018-09-13T03:38:50.385Z,76.06
2018-09-13T03:44:56.057Z,76.24
2018-09-13T03:51:00.859Z,75.90
2018-09-13T03:57:05.786Z,75.27
2018-09-13T04:03:11.108Z,76.30
2018-09-13T04:09:15.893Z,77.08
2018-09-13T04:15:20.674Z,78.55
2018-09-13T04:21:25.507Z,78.07
2018-09-13T04:27:30.278Z,79.00
2018-09-13T04:33:35.152Z,78.80
2018-09-13T04:39:40.095Z,78.99
2018-09-13T04:45:45.455Z,78.78
2018-09-13T04:51:50.645Z,78.68
2018-09-13T04:57:55.449Z,78.13
2018-09-13T05:04:00.265Z,77.05
2018-09-13T05:10:05.328Z,77.16
2018-09-13T05:16:11.220Z,77.01
2018-09-13T05:22:16.127Z,76.21
2018-09-13T05:28:20.865Z,76.28
2018-09-13T05:34:26.013Z,76.61
2018-09-13T05:40:31.100Z,76.95
2018-09-13T05:46:36.000Z,78.30
2018-09-13T05:52:41.182Z,78.76
2018-09-13T05:58:46.512Z,79.25
2018-09-13T06:04:51.471Z,81.37
2018-09-13T06:10:56.306Z,81.69
2018-09-13T06:17:01.121Z,82.89
2018-09-13T06:23:05.944Z,82.71
2018-09-13T06:29:12.662Z,82.28
2018-09-13T06:35:17.535Z,83.02
2018-09-13T06:41:22.376Z,83.26
2018-09-13T06:47:27.132Z,83.04
2018-09-13T06:53:31.884Z,82.64
2018-09-13T06:59:36.720Z,82.89
2018-09-13T07:05:42.059Z,81.76
2018-09-13T07:11:47.207Z,80.85
2018-09-13T07:17:51.913Z,80.25
2018-09-13T07:23:57.123Z,78.90
2018-09-13T07:30:01.876Z,79.91
2018-09-13T07:36:06.999Z,78.18
2018-09-13T07:42:13.635Z,77.85
2018-09-13T07:48:18.611Z,77.77
2018-09-13T07:54:23.315Z,77.59
2018-09-13T08:00:28.210Z,78.00
2018-09-13T08:06:33.102Z,76.41
2018-09-13T08:12:39.269Z,77.78
2018-09-13T08:18:45.607Z,76.91
2018-09-13T08:24:50.551Z,77.23
2018-09-13T08:30:56.091Z,78.74
2018-09-13T08:37:01.075Z,77.45
2018-09-13T08:43:06.201Z,77.73
2018-09-13T08:49:11.367Z,78.03
2018-09-13T08:55:16.279Z,78.00
2018-09-13T09:01:21.186Z,76.39
2018-09-13T09:07:25.904Z,78.42
2018-09-13T09:13:30.749Z,78.16
2018-09-13T09:19:35.663Z,77.67
2018-09-13T09:25:41.067Z,78.75
2018-09-13T09:31:46.595Z,78.48
2018-09-13T09:37:51.633Z,78.38
2018-09-13T09:43:56.597Z,77.74
2018-09-13T09:50:01.375Z,77.65
2018-09-13T09:56:06.268Z,78.77
2018-09-13T10:02:17.081Z,77.31
2018-09-13T10:08:22.302Z,77.78
2018-09-13T10:14:27.070Z,76.70
2018-09-13T10:20:37.136Z,77.08
2018-09-13T10:26:48.528Z,77.23
2018-09-13T10:32:58.442Z,77.04
2018-09-13T10:39:08.686Z,75.87
2018-09-13T10:45:19.144Z,75.07
2018-09-13T10:51:29.151Z,74.85
2018-09-13T10:57:39.124Z,75.20
2018-09-13T11:03:44.574Z,75.96
2018-09-13T11:09:49.576Z,75.21
2018-09-13T11:15:54.352Z,73.78
2018-09-13T11:21:59.225Z,72.53
2018-09-13T11:28:04.128Z,73.30
2018-09-13T11:34:08.940Z,71.89
2018-09-13T11:40:14.790Z,70.94
2018-09-13T11:46:19.765Z,71.55
2018-09-13T11:52:25.057Z,71.19
2018-09-13T11:58:29.781Z,70.07
2018-09-13T12:04:34.587Z,71.27
2018-09-13T12:10:39.496Z,70.29
2018-09-13T12:16:44.881Z,71.45
2018-09-13T12:22:49.690Z,71.22
2018-09-13T12:28:54.518Z,70.33
2018-09-13T12:34:59.536Z,69.92
2018-09-13T12:41:04.487Z,70.11
2018-09-13T12:47:09.912Z,72.72
2018-09-13T12:53:15.049Z,72.18
2018-09-13T12:59:19.879Z,71.37
2018-09-13T13:05:24.648Z,71.69
2018-09-13T13:11:29.542Z,73.26
2018-09-13T13:17:34.363Z,73.49
2018-09-13T13:23:39.270Z,73.72
2018-09-13T13:29:45.205Z,73.46
2018-09-13T13:35:50.140Z,74.58
2018-09-13T13:41:54.943Z,75.00
2018-09-13T13:47:59.799Z,75.20
2018-09-13T13:54:04.565Z,76.00
2018-09-13T14:00:11.033Z,75.01
2018-09-13T14:06:16.212Z,75.49
2018-09-13T14:12:21.173Z,77.17
2018-09-13T14:18:26.368Z,78.79
2018-09-13T14:24:31.082Z,80.74
2018-09-13T14:30:35.822Z,82.07
2018-09-13T14:36:41.585Z,82.18
2018-09-13T14:42:46.583Z,83.38
2018-09-13T14:48:51.860Z,84.99
2018-09-13T14:54:56.512Z,84.95
2018-09-13T15:01:01.611Z,84.52
2018-09-13T15:07:06.394Z,84.23
2018-09-13T15:13:13.203Z,84.24
2018-09-13T15:19:18.490Z,84.17
2018-09-13T15:25:23.336Z,82.42
2018-09-13T15:31:28.115Z,83.60
2018-09-13T15:37:33.029Z,84.18
2018-09-13T15:43:37.941Z,84.33
2018-09-13T15:49:43.391Z,83.90
2018-09-13T15:55:48.227Z,83.60
2018-09-13T16:01:53.178Z,82.85
2018-09-13T16:07:58.010Z,83.81
2018-09-13T16:14:02.855Z,84.38
2018-09-13T16:20:07.872Z,84.10
2018-09-13T16:26:12.978Z,84.08
2018-09-13T16:32:21.569Z,85.29
2018-09-13T16:39:33.910Z,84.65
2018-09-13T16:45:38.967Z,85.00
2018-09-13T16:51:44.942Z,85.31
2018-09-13T16:57:49.969Z,86.40
2018-09-13T17:03:54.861Z,86.74
2018-09-13T17:10:00.018Z,86.94
2018-09-13T17:16:04.820Z,87.91
2018-09-13T17:22:09.758Z,88.70
2018-09-13T17:28:15.332Z,88.70
2018-09-13T17:34:20.146Z,89.89
2018-09-13T17:40:25.140Z,89.77
2018-09-13T17:46:30.315Z,89.65
2018-09-13T17:52:35.101Z,90.13
2018-09-13T17:58:40.641Z,89.86
2018-09-13T18:04:46.014Z,90.06
2018-09-13T18:10:50.805Z,89.25
2018-09-13T18:16:55.790Z,88.76
2018-09-13T18:23:00.659Z,88.53
2018-09-13T18:29:05.700Z,88.67
2018-09-13T18:35:10.533Z,88.35
2018-09-13T18:41:15.759Z,88.22
2018-09-13T18:47:20.548Z,87.42
2018-09-13T18:53:25.444Z,87.37
2018-09-13T18:59:30.229Z,87.48
2018-09-13T19:05:35.057Z,87.86
2018-09-13T19:11:40.786Z,87.76
2018-09-13T19:17:45.921Z,86.95
2018-09-13T19:23:50.677Z,86.12
2018-09-13T19:29:55.370Z,87.04
2018-09-13T19:36:00.047Z,87.22
2018-09-13T19:42:04.823Z,86.97
2018-09-13T19:48:10.050Z,86.88
2018-09-13T19:54:15.461Z,86.76
2018-09-13T20:00:20.405Z,87.90
2018-09-13T20:06:25.086Z,88.12
2018-09-13T20:12:29.907Z,88.24
2018-09-13T20:18:34.760Z,88.10
2018-09-13T20:24:39.870Z,87.85
2018-09-13T20:30:45.122Z,86.95
2018-09-13T20:36:50.095Z,86.88
2018-09-13T20:42:55.337Z,87.63
2018-09-13T20:49:00.245Z,87.46
2018-09-13T20:55:05.580Z,87.85
2018-09-13T21:01:11.057Z,87.94
2018-09-13T21:07:16.264Z,87.26
2018-09-13T21:13:21.145Z,86.99
2018-09-13T21:19:25.812Z,88.00
2018-09-13T21:25:30.518Z,87.77
2018-09-13T21:31:35.296Z,87.66
2018-09-13T21:37:40.319Z,87.28
2018-09-13T21:43:45.004Z,87.30
2018-09-13T21:49:49.807Z,87.03
2018-09-13T21:55:54.735Z,87.36
2018-09-13T22:01:59.587Z,87.31
2018-09-13T22:08:04.267Z,87.62
2018-09-13T22:14:09.327Z,87.56
2018-09-13T22:20:14.093Z,87.08
2018-09-13T22:26:18.833Z,87.48
2018-09-13T22:32:23.611Z,87.41
2018-09-13T22:38:28.376Z,86.56
2018-09-13T22:44:38.413Z,87.12
2018-09-13T22:50:44.047Z,85.78
2018-09-13T22:56:48.788Z,86.09
2018-09-13T23:02:53.596Z,86.28
2018-09-13T23:08:58.478Z,86.16
2018-09-13T23:15:03.292Z,86.00
2018-09-13T23:21:08.311Z,86.63
2018-09-13T23:27:13.281Z,86.41
2018-09-13T23:33:18.040Z,86.21
2018-09-13T23:39:23.346Z,85.09
2018-09-13T23:45:28.424Z,85.44
2018-09-13T23:51:33.628Z,86.27
2018-09-13T23:57:38.845Z,86.22
